Time;durP1;ratioP1;P1;durP2;ratioP2;P2;SDS_P1;SDS_P2;PMS_P1;PMS_P2;Temp;Humidity;BMP_temperature;BMP_pressure;BME280_temperature;BME280_humidity;BME280_pressure;Samples;Min_cycle;Max_cycle;Signal;HPM_P1;HPM_P2
2021/01/15 00:01:19;;;;;;;13.57;8.88;;;1.00;99.90;;;;;;5046098;28;20212;-75
2021/01/15 00:03:48;;;;;;;11.10;8.02;;;1.20;99.90;;;;;;5062042;28;20263;-73
2021/01/15 00:06:20;;;;;;;11.77;8.18;;;1.20;99.90;;;;;;5055581;28;20235;-74
2021/01/15 00:08:47;;;;;;;9.80;6.85;;;1.10;1.00;;;;;;5048405;28;20200;-77
2021/01/15 00:11:21;;;;;;;9.07;7.18;;;1.10;1.00;;;;;;5044973;28;20219;-74
2021/01/15 00:13:48;;;;;;;9.52;8.48;;;1.10;54.30;;;;;;5039050;28;20214;-75
2021/01/15 00:16:19;;;;;;;8.18;6.15;;;1.10;99.90;;;;;;5041302;28;20681;-74
2021/01/15 00:18:49;;;;;;;11.02;7.60;;;1.10;89.20;;;;;;5048633;28;20595;-75
2021/01/15 00:21:23;;;;;;;8.60;7.80;;;1.00;61.40;;;;;;5044255;28;20672;-75
2021/01/15 00:23:52;;;;;;;11.43;7.57;;;1.00;99.90;;;;;;5042633;28;20207;-75
2021/01/15 00:26:20;;;;;;;8.88;7.97;;;1.00;99.90;;;;;;5047880;28;20217;-73
2021/01/15 00:28:48;;;;;;;12.68;8.70;;;1.00;99.90;;;;;;5044527;28;20258;-74
2021/01/15 00:31:15;;;;;;;13.52;8.48;;;1.10;99.90;;;;;;5043029;28;20302;-73
2021/01/15 00:33:43;;;;;;;12.18;8.13;;;1.10;99.90;;;;;;5046598;28;20240;-74
2021/01/15 00:36:11;;;;;;;9.98;8.25;;;1.10;91.10;;;;;;5047339;28;20216;-73
2021/01/15 00:38:39;;;;;;;10.00;7.97;;;1.10;1.00;;;;;;5038824;28;20900;-73
2021/01/15 00:41:09;;;;;;;12.35;8.15;;;1.00;1.00;;;;;;5045556;28;20210;-73
2021/01/15 00:43:36;;;;;;;10.25;8.30;;;0.80;99.90;;;;;;5044910;28;20712;-74
2021/01/15 00:46:07;;;;;;;11.90;8.10;;;0.80;99.90;;;;;;5060073;28;20211;-75
2021/01/15 00:48:35;;;;;;;12.88;8.48;;;0.70;99.90;;;;;;5051932;28;20208;-75
2021/01/15 00:51:08;;;;;;;10.82;8.35;;;0.90;99.90;;;;;;5045986;28;20216;-74
2021/01/15 00:53:36;;;;;;;11.38;8.65;;;0.90;99.90;;;;;;5044486;28;20219;-74
2021/01/15 00:56:03;;;;;;;9.95;7.97;;;1.00;99.90;;;;;;5046587;28;20226;-75
2021/01/15 00:58:31;;;;;;;9.85;7.60;;;1.00;1.00;;;;;;5045374;28;20218;-74
2021/01/15 01:00:58;;;;;;;10.55;7.78;;;1.00;61.10;;;;;;5040233;28;20580;-74
2021/01/15 01:03:25;;;;;;;11.55;8.18;;;1.00;1.00;;;;;;5037243;28;20212;-73
2021/01/15 01:05:52;;;;;;;11.65;8.05;;;1.00;1.00;;;;;;5045229;28;20232;-75
2021/01/15 01:08:19;;;;;;;9.77;8.38;;;1.00;1.00;;;;;;5041685;28;20216;-75
2021/01/15 01:10:47;;;;;;;10.38;7.50;;;1.10;1.00;;;;;;5044123;28;20675;-75
2021/01/15 01:13:15;;;;;;;10.38;7.80;;;1.20;1.00;;;;;;5043788;28;20212;-75
2021/01/15 01:15:42;;;;;;;12.57;7.68;;;1.20;1.00;;;;;;5045468;28;20244;-74
2021/01/15 01:18:09;;;;;;;12.82;8.35;;;1.10;99.90;;;;;;5046128;28;20243;-75
2021/01/15 01:20:36;;;;;;;13.52;8.30;;;1.00;99.90;;;;;;5046030;28;20243;-75
2021/01/15 01:23:03;;;;;;;12.52;7.93;;;1.00;99.90;;;;;;5039852;28;20219;-76
2021/01/15 01:25:30;;;;;;;11.85;8.15;;;1.00;99.90;;;;;;5051009;28;20236;-74
2021/01/15 01:27:58;;;;;;;10.77;7.60;;;1.00;99.90;;;;;;5047448;28;20212;-76
2021/01/15 01:30:26;;;;;;;9.50;8.43;;;0.90;99.90;;;;;;5047204;28;20630;-74
2021/01/15 01:32:53;;;;;;;11.23;7.90;;;0.90;82.90;;;;;;5045570;28;20585;-75
2021/01/15 01:35:21;;;;;;;13.93;8.10;;;0.90;1.00;;;;;;5045014;28;20323;-75
2021/01/15 01:37:48;;;;;;;8.13;6.53;;;0.90;1.00;;;;;;5052911;28;20212;-73
2021/01/15 01:40:15;;;;;;;8.38;6.70;;;1.00;1.00;;;;;;5041356;28;20224;-75
2021/01/15 01:42:43;;;;;;;13.23;6.78;;;1.00;1.00;;;;;;5037080;28;20220;-75
2021/01/15 01:45:12;;;;;;;11.15;7.90;;;1.10;99.90;;;;;;5057796;28;20231;-75
2021/01/15 01:47:39;;;;;;;8.40;6.22;;;1.00;99.90;;;;;;5044552;28;20216;-75
2021/01/15 01:50:08;;;;;;;10.15;6.88;;;1.00;99.90;;;;;;5042146;28;20291;-75
2021/01/15 01:52:36;;;;;;;11.73;5.88;;;1.10;99.90;;;;;;5048723;28;20247;-74
2021/01/15 01:55:04;;;;;;;9.32;6.88;;;1.10;99.90;;;;;;5042119;28;20237;-74
2021/01/15 01:57:31;;;;;;;9.13;6.53;;;1.00;1.00;;;;;;5043656;28;20211;-76
2021/01/15 01:59:59;;;;;;;7.75;6.90;;;1.00;99.90;;;;;;5045259;28;20258;-76
2021/01/15 02:02:27;;;;;;;11.43;7.60;;;1.10;1.00;;;;;;5048325;28;20664;-75
2021/01/15 02:04:54;;;;;;;10.70;7.78;;;1.10;99.90;;;;;;5045295;28;20259;-75
2021/01/15 02:07:21;;;;;;;8.40;5.65;;;1.10;99.90;;;;;;5042406;28;22180;-75
2021/01/15 02:09:56;;;;;;;8.45;6.03;;;1.10;99.90;;;;;;5047301;28;20218;-74
2021/01/15 02:12:32;;;;;;;7.30;5.85;;;1.00;1.00;;;;;;5035629;28;20700;-75
2021/01/15 02:15:05;;;;;;;6.07;5.47;;;1.00;99.90;;;;;;5042634;28;20716;-74
2021/01/15 02:17:38;;;;;;;5.75;4.30;;;1.00;99.90;;;;;;5041269;28;20266;-76
2021/01/15 02:20:43;;;;;;;7.43;4.75;;;1.10;1.00;;;;;;5044714;28;20232;-74
2021/01/15 02:23:15;;;;;;;10.38;4.90;;;1.10;1.00;;;;;;5043484;28;20220;-75
2021/01/15 02:26:15;;;;;;;7.47;4.80;;;1.20;99.90;;;;;;5038922;28;20723;-75
2021/01/15 02:29:12;;;;;;;6.03;4.07;;;1.20;99.90;;;;;;5044844;28;20839;-75
2021/01/15 02:32:12;;;;;;;5.50;4.38;;;1.30;1.00;;;;;;5039101;28;20227;-77
2021/01/15 02:35:00;;;;;;;5.50;3.55;;;1.20;99.90;;;;;;5047126;28;20224;-74
2021/01/15 02:37:38;;;;;;;4.40;3.80;;;1.10;1.00;;;;;;5045707;28;20203;-75
2021/01/15 02:40:07;;;;;;;3.95;3.45;;;1.00;1.00;;;;;;5038941;28;20298;-75
2021/01/15 02:42:36;;;;;;;7.28;3.75;;;1.00;99.90;;;;;;5050521;28;20680;-74
2021/01/15 02:45:08;;;;;;;6.75;3.88;;;1.00;99.90;;;;;;5045880;28;20231;-75
2021/01/15 02:47:46;;;;;;;5.28;3.78;;;1.00;1.00;;;;;;5048222;28;20789;-76
2021/01/15 02:50:16;;;;;;;4.30;3.60;;;1.00;3.80;;;;;;5049334;28;20551;-75
2021/01/15 02:52:44;;;;;;;3.20;2.80;;;0.90;1.00;;;;;;5045943;28;20205;-75
2021/01/15 02:55:12;;;;;;;6.78;2.65;;;0.70;1.00;;;;;;5039491;28;20243;-75
2021/01/15 02:57:40;;;;;;;3.00;2.70;;;0.60;99.90;;;;;;5049644;28;20270;-75
2021/01/15 03:00:09;;;;;;;3.10;2.90;;;0.60;1.00;;;;;;5047638;28;20225;-75
2021/01/15 03:02:48;;;;;;;2.85;2.65;;;0.50;1.00;;;;;;5048433;28;20224;-75
2021/01/15 03:05:20;;;;;;;4.20;3.70;;;0.50;1.00;;;;;;5042459;28;20279;-76
2021/01/15 03:07:50;;;;;;;5.03;3.05;;;0.50;1.00;;;;;;5041793;28;20214;-74
2021/01/15 03:10:22;;;;;;;4.25;2.58;;;0.50;1.00;;;;;;5044785;28;20206;-72
2021/01/15 03:12:51;;;;;;;3.38;2.70;;;0.40;99.90;;;;;;5042829;28;20760;-76
2021/01/15 03:15:19;;;;;;;3.83;3.38;;;0.40;1.00;;;;;;5040345;28;20247;-75
2021/01/15 03:17:50;;;;;;;3.10;2.80;;;0.40;1.00;;;;;;5063186;28;20219;-74
2021/01/15 03:20:19;;;;;;;4.22;2.70;;;0.50;99.90;;;;;;5056606;28;20253;-77
2021/01/15 03:22:47;;;;;;;4.72;3.58;;;0.60;1.00;;;;;;5047437;28;20760;-75
2021/01/15 03:25:15;;;;;;;2.67;2.47;;;0.60;99.90;;;;;;5063805;28;20236;-72
2021/01/15 03:27:45;;;;;;;4.38;3.25;;;0.70;99.90;;;;;;5045464;28;20212;-76
2021/01/15 03:30:16;;;;;;;3.30;2.50;;;0.70;99.90;;;;;;5046249;28;20209;-76
2021/01/15 03:32:44;;;;;;;3.47;2.70;;;0.70;16.30;;;;;;5041881;28;20297;-74
2021/01/15 03:35:22;;;;;;;4.25;3.15;;;0.60;1.00;;;;;;5043845;28;20242;-75
2021/01/15 03:37:56;;;;;;;3.63;2.20;;;0.70;1.00;;;;;;5041646;28;20305;-75
2021/01/15 03:40:24;;;;;;;4.13;2.70;;;0.60;1.00;;;;;;5049988;28;20228;-75
2021/01/15 03:42:51;;;;;;;3.10;2.60;;;0.70;1.00;;;;;;5038289;28;20217;-75
2021/01/15 03:45:19;;;;;;;3.17;2.53;;;0.70;1.00;;;;;;5044999;28;20228;-75
2021/01/15 03:47:46;;;;;;;2.65;2.45;;;0.70;1.00;;;;;;5047139;28;20635;-75
2021/01/15 03:50:14;;;;;;;3.20;2.60;;;0.70;1.00;;;;;;5044697;28;20212;-75
2021/01/15 03:52:41;;;;;;;4.80;2.40;;;0.70;1.00;;;;;;5060801;28;20212;-76
2021/01/15 03:55:10;;;;;;;3.90;2.28;;;0.70;1.00;;;;;;5046691;28;20335;-74
2021/01/15 03:57:37;;;;;;;2.95;2.10;;;0.70;1.00;;;;;;5054589;28;20238;-76
2021/01/15 04:00:07;;;;;;;5.05;2.35;;;0.70;1.00;;;;;;5048883;28;20723;-75
2021/01/15 04:02:34;;;;;;;2.10;1.95;;;0.70;1.00;;;;;;5041128;28;20212;-75
2021/01/15 04:05:01;;;;;;;3.90;2.08;;;0.70;1.00;;;;;;5041372;28;20269;-75
2021/01/15 04:07:30;;;;;;;4.40;2.28;;;0.70;1.00;;;;;;5040617;28;20216;-76
2021/01/15 04:09:57;;;;;;;2.80;2.60;;;0.70;1.00;;;;;;5048999;28;20212;-75
2021/01/15 04:12:25;;;;;;;3.17;2.20;;;0.70;1.00;;;;;;5061750;28;20208;-75
2021/01/15 04:14:52;;;;;;;2.85;2.20;;;0.60;1.00;;;;;;5042164;28;20247;-75
2021/01/15 04:17:19;;;;;;;2.38;2.17;;;0.60;1.00;;;;;;5057928;28;20261;-74
2021/01/15 04:19:46;;;;;;;2.30;2.05;;;0.50;1.00;;;;;;5048554;28;20787;-76
2021/01/15 04:22:13;;;;;;;3.97;2.88;;;0.50;99.90;;;;;;5043582;28;20214;-75
2021/01/15 04:24:41;;;;;;;1.88;1.77;;;0.50;1.00;;;;;;5045258;28;20285;-75
2021/01/15 04:27:08;;;;;;;2.17;1.98;;;0.50;1.00;;;;;;5043652;28;20220;-74
2021/01/15 04:29:36;;;;;;;2.85;2.15;;;0.50;1.00;;;;;;5039401;28;20277;-74
2021/01/15 04:32:04;;;;;;;3.40;2.83;;;0.50;1.00;;;;;;5043442;28;20247;-74
2021/01/15 04:34:31;;;;;;;2.28;2.03;;;0.50;1.00;;;;;;5047095;28;20237;-75
2021/01/15 04:36:59;;;;;;;3.45;2.42;;;0.40;1.00;;;;;;5046676;28;20221;-76
2021/01/15 04:39:26;;;;;;;3.20;2.40;;;0.50;1.00;;;;;;5037297;28;20225;-75
2021/01/15 04:41:55;;;;;;;3.08;2.30;;;0.50;1.00;;;;;;5035828;28;20665;-75
2021/01/15 04:44:22;;;;;;;2.22;1.95;;;0.50;1.00;;;;;;5039034;28;20286;-75
2021/01/15 04:46:51;;;;;;;1.98;1.80;;;0.50;1.00;;;;;;5043955;28;20220;-75
2021/01/15 04:49:23;;;;;;;2.35;1.40;;;0.40;1.00;;;;;;5047797;28;20650;-74
2021/01/15 04:51:56;;;;;;;2.25;2.05;;;0.40;1.00;;;;;;5047997;28;20216;-74
2021/01/15 04:54:35;;;;;;;2.00;1.90;;;0.40;1.00;;;;;;5045653;28;20307;-74
2021/01/15 04:57:05;;;;;;;2.28;1.80;;;0.30;1.00;;;;;;5039045;28;20272;-75
2021/01/15 04:59:43;;;;;;;2.15;1.95;;;0.30;1.00;;;;;;5041067;28;20225;-75
2021/01/15 05:02:12;;;;;;;2.80;2.35;;;0.20;1.00;;;;;;5058560;28;20216;-76
2021/01/15 05:04:40;;;;;;;3.97;2.55;;;0.20;81.80;;;;;;5040518;28;20256;-75
2021/01/15 05:07:09;;;;;;;2.40;2.03;;;0.30;1.00;;;;;;5038754;28;20555;-74
2021/01/15 05:09:42;;;;;;;2.95;2.50;;;0.20;2.90;;;;;;5045225;28;20216;-75
2021/01/15 05:12:11;;;;;;;2.33;2.13;;;0.20;1.00;;;;;;5043403;28;20634;-74
2021/01/15 05:14:39;;;;;;;2.78;2.58;;;0.20;1.00;;;;;;5041735;28;20243;-74
2021/01/15 05:17:07;;;;;;;2.88;2.67;;;0.10;1.00;;;;;;5041713;28;20851;-75
2021/01/15 05:19:39;;;;;;;2.97;1.98;;;0.10;20.90;;;;;;5046847;28;20233;-78
2021/01/15 05:22:07;;;;;;;2.40;1.92;;;0.10;99.90;;;;;;5043684;28;20212;-77
2021/01/15 05:24:34;;;;;;;2.90;2.38;;;0.10;99.90;;;;;;5043574;28;20235;-74
2021/01/15 05:27:38;;;;;;;3.08;1.83;;;0.10;1.00;;;;;;5036514;28;20219;-76
2021/01/15 05:30:17;;;;;;;2.83;1.90;;;0.00;1.00;;;;;;5038148;28;20826;-76
2021/01/15 05:32:45;;;;;;;3.25;2.50;;;0.00;99.90;;;;;;5044407;28;20229;-75
2021/01/15 05:35:14;;;;;;;2.55;1.98;;;0.00;84.40;;;;;;5040830;28;20260;-75
2021/01/15 05:37:42;;;;;;;3.00;2.70;;;0.00;77.10;;;;;;5040017;28;20295;-75
2021/01/15 05:40:10;;;;;;;2.55;2.33;;;-0.10;52.80;;;;;;5041275;28;20237;-76
2021/01/15 05:42:49;;;;;;;3.17;2.53;;;-0.10;99.90;;;;;;5042775;28;20801;-74
2021/01/15 05:45:20;;;;;;;2.80;2.50;;;0.00;99.90;;;;;;5040216;28;20587;-75
2021/01/15 05:47:48;;;;;;;3.40;2.33;;;-0.10;63.30;;;;;;5046829;28;20504;-75
2021/01/15 05:50:17;;;;;;;2.30;2.10;;;-0.10;99.90;;;;;;5046426;28;20219;-74
2021/01/15 05:52:54;;;;;;;4.03;3.00;;;-0.10;99.90;;;;;;5044070;28;20220;-75
2021/01/15 05:55:23;;;;;;;4.43;3.05;;;-0.10;99.90;;;;;;5039607;28;20330;-74
2021/01/15 05:57:50;;;;;;;3.30;3.03;;;-0.10;99.90;;;;;;5047143;28;20219;-75
2021/01/15 06:00:33;;;;;;;3.95;3.28;;;-0.10;99.90;;;;;;5041843;28;20246;-77
2021/01/15 06:03:05;;;;;;;2.88;2.60;;;-0.20;99.90;;;;;;5045257;28;20297;-75
2021/01/15 06:05:34;;;;;;;2.10;1.90;;;-0.30;99.90;;;;;;5044232;28;20795;-77
2021/01/15 06:08:01;;;;;;;3.63;3.33;;;-0.30;1.00;;;;;;5047616;28;20207;-78
2021/01/15 06:10:42;;;;;;;2.72;2.30;;;-0.30;99.90;;;;;;5041458;28;22480;-76
2021/01/15 06:13:09;;;;;;;3.13;2.70;;;-0.40;1.00;;;;;;5042459;28;20487;-77
2021/01/15 06:15:47;;;;;;;4.63;3.17;;;-0.40;98.40;;;;;;5046157;28;20239;-76
2021/01/15 06:18:18;;;;;;;4.05;2.90;;;-0.40;1.00;;;;;;5033749;28;20211;-77
2021/01/15 06:20:46;;;;;;;2.60;2.40;;;-0.40;9.10;;;;;;5044461;28;20235;-76
2021/01/15 06:23:15;;;;;;;3.50;3.15;;;-0.40;1.00;;;;;;5041089;28;20215;-75
2021/01/15 06:25:56;;;;;;;3.63;3.30;;;-0.50;9.90;;;;;;5060512;28;20595;-76
2021/01/15 06:28:34;;;;;;;4.82;3.22;;;-0.50;1.00;;;;;;5053294;28;20301;-77
2021/01/15 06:31:04;;;;;;;5.25;3.38;;;-0.60;1.00;;;;;;5041034;28;20219;-77
2021/01/15 06:33:31;;;;;;;3.63;3.10;;;-0.50;1.00;;;;;;5041680;28;20218;-77
2021/01/15 06:35:59;;;;;;;3.95;3.65;;;-0.60;99.90;;;;;;5039420;28;20235;-77
2021/01/15 06:38:29;;;;;;;5.38;3.60;;;-0.60;97.50;;;;;;5035593;28;20217;-76
2021/01/15 06:40:57;;;;;;;3.22;2.90;;;-0.70;97.00;;;;;;5038338;28;20231;-76
2021/01/15 06:43:25;;;;;;;4.03;3.05;;;-0.80;99.90;;;;;;5038734;28;20211;-77
2021/01/15 06:45:55;;;;;;;4.57;3.28;;;-0.80;99.90;;;;;;5034144;28;20240;-78
2021/01/15 06:48:24;;;;;;;4.57;3.85;;;-0.70;99.90;;;;;;5036835;28;20828;-78
2021/01/15 06:50:53;;;;;;;6.03;4.00;;;-0.70;99.90;;;;;;5043676;28;20211;-77
2021/01/15 06:53:24;;;;;;;5.28;4.03;;;-0.60;99.90;;;;;;5032775;28;20214;-75
2021/01/15 06:55:53;;;;;;;4.00;3.65;;;-0.70;1.00;;;;;;5035716;28;20237;-76
2021/01/15 06:58:27;;;;;;;3.42;3.13;;;-0.70;99.90;;;;;;5049710;28;20216;-77
2021/01/15 07:01:19;;;;;;;7.32;4.03;;;-0.70;99.90;;;;;;5036866;28;20285;-74
2021/01/15 07:04:16;;;;;;;4.70;4.05;;;-0.70;68.30;;;;;;5049896;28;20544;-76
2021/01/15 07:07:07;;;;;;;7.22;3.67;;;-0.70;99.90;;;;;;5038791;28;20224;-75
2021/01/15 07:09:35;;;;;;;3.50;3.30;;;-0.80;28.20;;;;;;5036471;28;20205;-76
2021/01/15 07:12:08;;;;;;;5.53;3.42;;;-0.80;69.70;;;;;;5041284;28;20298;-78
2021/01/15 07:14:44;;;;;;;3.95;3.53;;;-0.80;99.90;;;;;;5037787;28;20233;-75
2021/01/15 07:17:16;;;;;;;4.22;3.83;;;-0.80;71.00;;;;;;5040460;28;20305;-76
2021/01/15 07:19:45;;;;;;;4.30;3.60;;;-0.70;1.00;;;;;;5059980;28;20406;-78
2021/01/15 07:22:13;;;;;;;4.43;3.63;;;-0.70;1.00;;;;;;5041719;28;20237;-77
2021/01/15 07:24:43;;;;;;;5.32;4.18;;;-0.60;1.00;;;;;;5044708;28;20258;-76
2021/01/15 07:27:13;;;;;;;5.45;4.97;;;-0.60;1.00;;;;;;5039517;28;20212;-75
2021/01/15 07:29:48;;;;;;;5.30;4.53;;;-0.60;99.90;;;;;;5056484;28;20276;-75
2021/01/15 07:32:22;;;;;;;5.53;4.35;;;-0.60;99.90;;;;;;5045323;28;20683;-75
2021/01/15 07:34:53;;;;;;;3.72;3.22;;;-0.70;99.90;;;;;;5044434;28;20903;-75
2021/01/15 07:37:23;;;;;;;4.82;4.43;;;-0.60;99.90;;;;;;5045503;28;20278;-76
2021/01/15 07:40:09;;;;;;;4.53;3.58;;;-0.60;99.90;;;;;;5040339;28;20235;-76
2021/01/15 07:42:57;;;;;;;6.50;4.18;;;-0.60;32.80;;;;;;5039145;28;20288;-76
2021/01/15 07:45:58;;;;;;;5.35;3.72;;;-0.60;1.00;;;;;;5061204;28;20259;-74
2021/01/15 07:48:26;;;;;;;4.57;3.90;;;-0.60;32.70;;;;;;5043933;28;20302;-77
2021/01/15 07:50:54;;;;;;;5.90;3.75;;;-0.50;1.00;;;;;;5051311;28;20730;-77
2021/01/15 07:53:27;;;;;;;5.13;4.57;;;-0.40;1.00;;;;;;5042407;28;20220;-78
2021/01/15 07:55:57;;;;;;;7.80;4.18;;;-0.40;1.00;;;;;;5046685;28;20223;-78
2021/01/15 07:58:26;;;;;;;5.80;4.30;;;-0.30;1.00;;;;;;5038244;28;20293;-78
2021/01/15 08:01:04;;;;;;;6.93;3.60;;;-0.20;1.00;;;;;;5036092;28;20232;-76
2021/01/15 08:03:33;;;;;;;5.03;4.13;;;-0.20;1.00;;;;;;5043960;28;20407;-76
2021/01/15 08:06:02;;;;;;;5.82;4.20;;;-0.10;1.00;;;;;;5044118;28;20227;-76
2021/01/15 08:08:29;;;;;;;4.78;4.28;;;0.00;99.90;;;;;;5040426;28;20311;-75
2021/01/15 08:11:09;;;;;;;5.72;4.47;;;0.10;99.90;;;;;;5041455;28;20212;-76
2021/01/15 08:13:36;;;;;;;8.65;7.03;;;0.40;99.90;;;;;;5042234;28;20274;-78
2021/01/15 08:16:06;;;;;;;8.05;5.35;;;0.70;1.00;;;;;;5046850;28;20319;-78
2021/01/15 08:18:34;;;;;;;10.05;5.47;;;1.00;1.00;;;;;;5039435;28;20218;-75
2021/01/15 08:21:02;;;;;;;8.35;6.38;;;1.30;1.00;;;;;;5049811;28;20838;-76
2021/01/15 08:23:29;;;;;;;12.27;6.30;;;1.70;99.90;;;;;;5040620;28;20212;-76
2021/01/15 08:26:33;;;;;;;8.38;6.68;;;2.10;99.90;;;;;;5051113;28;20227;-75
2021/01/15 08:29:04;;;;;;;8.50;6.78;;;2.60;1.00;;;;;;5040061;28;20227;-75
2021/01/15 08:31:31;;;;;;;8.80;5.93;;;3.00;1.00;;;;;;5040010;28;20972;-78
2021/01/15 08:34:17;;;;;;;8.15;5.38;;;3.40;1.00;;;;;;5039654;28;20227;-76
2021/01/15 08:36:47;;;;;;;6.63;5.93;;;3.60;99.90;;;;;;5045153;28;20220;-79
2021/01/15 08:39:14;;;;;;;7.55;4.60;;;3.90;99.90;;;;;;5041053;28;20205;-76
2021/01/15 08:41:43;;;;;;;5.65;4.97;;;4.20;99.90;;;;;;5059451;28;20209;-78
2021/01/15 08:44:14;;;;;;;8.18;5.70;;;4.60;99.90;;;;;;5044420;28;20248;-80
2021/01/15 08:46:42;;;;;;;6.60;5.75;;;4.60;99.90;;;;;;5044224;28;20237;-76
2021/01/15 08:49:10;;;;;;;5.55;4.50;;;4.70;99.90;;;;;;5037994;28;20667;-78
2021/01/15 08:51:39;;;;;;;6.22;4.95;;;4.70;99.90;;;;;;5053502;28;20212;-76
2021/01/15 08:54:08;;;;;;;3.55;3.10;;;4.90;99.90;;;;;;5043179;28;20238;-77
2021/01/15 08:56:40;;;;;;;6.32;4.43;;;5.40;99.90;;;;;;5042996;28;20226;-76
2021/01/15 08:59:10;;;;;;;5.75;5.25;;;5.60;99.90;;;;;;5041249;28;20987;-76
2021/01/15 09:01:39;;;;;;;6.32;5.63;;;5.60;99.90;;;;;;5037017;28;20232;-77
2021/01/15 09:04:07;;;;;;;5.50;4.43;;;5.80;99.90;;;;;;5054414;28;20258;-76
2021/01/15 09:06:36;;;;;;;5.15;4.40;;;5.80;99.90;;;;;;5042053;28;20208;-79
2021/01/15 09:09:05;;;;;;;7.85;5.85;;;5.80;99.90;;;;;;5034610;28;20218;-83
2021/01/15 09:11:34;;;;;;;7.68;5.63;;;5.80;99.90;;;;;;5042861;28;20222;-81
2021/01/15 09:14:03;;;;;;;8.15;5.05;;;5.50;99.90;;;;;;5052110;28;20242;-76
2021/01/15 09:16:32;;;;;;;4.93;4.47;;;5.40;99.90;;;;;;5048188;28;20216;-78
2021/01/15 09:19:06;;;;;;;7.25;5.28;;;5.30;99.90;;;;;;5035938;28;20217;-78
2021/01/15 09:21:33;;;;;;;4.88;4.38;;;5.20;99.90;;;;;;5036903;28;20223;-76
2021/01/15 09:24:01;;;;;;;5.38;4.88;;;5.10;99.90;;;;;;5037835;28;20234;-76
2021/01/15 09:26:28;;;;;;;5.38;4.85;;;4.90;99.90;;;;;;5042726;28;20720;-75
2021/01/15 09:28:55;;;;;;;5.53;4.68;;;4.80;99.90;;;;;;5048237;28;20234;-78
2021/01/15 09:31:22;;;;;;;4.70;4.30;;;4.70;99.90;;;;;;5031331;28;20208;-75
2021/01/15 09:33:52;;;;;;;6.13;4.80;;;4.40;99.90;;;;;;5043599;28;20223;-78
2021/01/15 09:36:24;;;;;;;6.57;5.93;;;4.10;99.90;;;;;;5047476;28;20230;-78
2021/01/15 09:38:53;;;;;;;5.30;4.72;;;4.00;99.90;;;;;;5038385;28;20210;-77
2021/01/15 09:41:21;;;;;;;6.40;5.18;;;4.00;99.90;;;;;;5039410;28;20606;-81
2021/01/15 09:43:51;;;;;;;5.55;5.05;;;3.90;99.90;;;;;;5040948;28;20210;-77
2021/01/15 09:46:23;;;;;;;5.80;4.68;;;4.00;99.90;;;;;;5038095;28;20214;-77
2021/01/15 09:48:52;;;;;;;5.13;4.45;;;3.90;99.90;;;;;;5042732;28;20217;-81
2021/01/15 09:51:24;;;;;;;6.18;4.25;;;3.90;99.90;;;;;;5054396;28;20212;-75
2021/01/15 09:53:52;;;;;;;5.05;4.55;;;4.00;99.90;;;;;;5045046;28;20288;-75
2021/01/15 09:56:27;;;;;;;6.05;4.50;;;4.20;99.90;;;;;;5042591;28;20214;-75
2021/01/15 09:58:56;;;;;;;5.88;4.40;;;4.50;99.90;;;;;;5036180;28;20213;-77
2021/01/15 10:01:25;;;;;;;8.13;4.70;;;4.80;99.90;;;;;;5043583;28;21244;-75
2021/01/15 10:03:55;;;;;;;4.53;4.13;;;4.80;99.90;;;;;;5040653;28;20211;-75
2021/01/15 10:06:24;;;;;;;4.80;4.30;;;4.80;99.90;;;;;;5039548;28;20211;-76
2021/01/15 10:08:51;;;;;;;5.55;5.00;;;4.90;99.90;;;;;;5046749;28;20216;-81
2021/01/15 10:11:22;;;;;;;5.80;5.18;;;5.30;99.90;;;;;;5036377;28;20215;-76
2021/01/15 10:13:50;;;;;;;5.82;4.32;;;6.90;99.90;;;;;;5046960;28;20219;-79
2021/01/15 10:16:17;;;;;;;4.40;4.00;;;8.90;99.90;;;;;;5042578;28;20214;-77
2021/01/15 10:18:45;;;;;;;5.57;4.30;;;10.20;99.90;;;;;;5032223;28;20215;-77
2021/01/15 10:21:13;;;;;;;6.13;4.50;;;10.80;99.90;;;;;;5035798;28;20235;-79
2021/01/15 10:23:40;;;;;;;4.73;3.53;;;11.00;99.90;;;;;;5032166;28;20478;-76
2021/01/15 10:26:12;;;;;;;5.33;4.70;;;10.90;99.90;;;;;;5039143;28;20856;-79
2021/01/15 10:28:39;;;;;;;5.47;4.43;;;11.20;99.90;;;;;;5035065;28;21192;-76
2021/01/15 10:31:09;;;;;;;6.23;5.63;;;11.60;99.90;;;;;;5033917;28;20445;-74
2021/01/15 10:33:37;;;;;;;6.70;6.10;;;12.10;99.90;;;;;;5037446;28;21014;-74
2021/01/15 10:36:06;;;;;;;7.00;5.50;;;12.30;99.90;;;;;;5037141;28;20569;-73
2021/01/15 10:38:36;;;;;;;5.67;5.17;;;12.40;99.90;;;;;;5040317;28;20979;-76
2021/01/15 10:41:03;;;;;;;5.70;5.20;;;12.30;99.90;;;;;;5051362;28;20483;-76
2021/01/15 10:43:31;;;;;;;5.40;4.90;;;12.30;99.90;;;;;;5042443;28;20480;-79
2021/01/15 10:45:58;;;;;;;5.10;4.70;;;12.70;99.90;;;;;;5037208;28;20230;-76
2021/01/15 10:48:26;;;;;;;9.60;5.40;;;13.80;99.90;;;;;;5038017;28;20553;-75
2021/01/15 10:50:53;;;;;;;5.10;4.60;;;15.20;99.90;;;;;;5043723;28;20459;-76
2021/01/15 10:53:20;;;;;;;10.80;7.80;;;16.80;99.90;;;;;;5037313;28;20477;-78
2021/01/15 10:55:48;;;;;;;4.80;4.40;;;18.50;99.90;;;;;;5047879;28;21028;-76
2021/01/15 10:58:16;;;;;;;7.27;6.63;;;20.00;99.90;;;;;;5039551;28;20993;-76
2021/01/15 11:00:44;;;;;;;7.17;6.47;;;22.10;99.90;;;;;;5039286;28;20499;-77
2021/01/15 11:03:11;;;;;;;6.47;6.00;;;23.80;99.90;;;;;;5043697;28;20545;-76
2021/01/15 11:05:38;;;;;;;6.73;6.20;;;25.30;99.90;;;;;;5039804;28;21006;-81
2021/01/15 11:08:06;;;;;;;7.20;6.30;;;26.60;99.90;;;;;;5049159;28;20456;-79
2021/01/15 11:10:33;;;;;;;7.03;6.40;;;27.70;99.90;;;;;;5042620;28;20456;-76
2021/01/15 11:13:01;;;;;;;7.10;6.40;;;28.10;99.90;;;;;;5045911;28;20550;-76
2021/01/15 11:15:28;;;;;;;6.40;5.90;;;28.70;99.90;;;;;;5049787;28;20873;-77
2021/01/15 11:17:56;;;;;;;50.37;35.17;;;28.90;99.90;;;;;;5042850;28;20439;-75
2021/01/15 11:20:24;;;;;;;8.27;7.57;;;28.40;99.90;;;;;;5044512;28;20477;-75
2021/01/15 11:22:51;;;;;;;6.33;5.70;;;27.20;99.90;;;;;;5042318;28;20458;-76
2021/01/15 11:25:18;;;;;;;6.53;6.03;;;25.70;99.90;;;;;;5043740;28;21116;-77
2021/01/15 11:27:46;;;;;;;6.70;6.20;;;24.40;99.90;;;;;;5042042;28;21839;-76
2021/01/15 11:30:15;;;;;;;5.97;5.57;;;23.40;99.90;;;;;;5039390;28;20455;-71
2021/01/15 11:32:42;;;;;;;5.10;4.80;;;22.50;99.90;;;;;;5041516;28;20485;-73
2021/01/15 11:35:09;;;;;;;4.30;3.90;;;21.90;99.90;;;;;;5041295;28;21114;-75
2021/01/15 11:37:36;;;;;;;4.60;4.30;;;21.10;99.90;;;;;;5037951;28;20471;-75
2021/01/15 11:40:06;;;;;;;4.37;4.03;;;20.40;99.90;;;;;;5038784;28;20450;-75
2021/01/15 11:42:33;;;;;;;4.60;4.07;;;19.40;99.90;;;;;;5044536;28;20451;-74
2021/01/15 11:45:01;;;;;;;5.87;5.40;;;18.90;99.90;;;;;;5035661;28;20479;-74
2021/01/15 11:47:29;;;;;;;5.63;5.23;;;18.10;99.90;;;;;;5037053;28;20985;-74
2021/01/15 11:49:56;;;;;;;5.80;5.40;;;17.20;99.90;;;;;;5040289;28;20516;-73
2021/01/15 11:52:24;;;;;;;6.53;5.97;;;16.60;99.90;;;;;;5043234;28;20717;-74
2021/01/15 11:54:51;;;;;;;6.47;5.87;;;16.40;99.90;;;;;;5041674;28;20499;-73
2021/01/15 11:57:18;;;;;;;6.93;6.33;;;17.10;99.90;;;;;;5050032;28;20459;-73
2021/01/15 11:59:45;;;;;;;7.70;6.90;;;18.00;99.90;;;;;;5044505;28;20965;-73
2021/01/15 12:02:12;;;;;;;6.73;6.13;;;18.40;99.90;;;;;;5040729;28;20557;-72
2021/01/15 12:04:40;;;;;;;9.87;7.13;;;18.50;99.90;;;;;;5042142;28;20483;-73
2021/01/15 12:07:07;;;;;;;7.23;6.63;;;18.40;99.90;;;;;;5038560;28;20448;-74
2021/01/15 12:09:34;;;;;;;7.27;6.53;;;18.20;99.90;;;;;;5046254;28;20463;-73
2021/01/15 12:12:01;;;;;;;7.90;7.17;;;17.90;99.90;;;;;;5039966;28;20456;-74
2021/01/15 12:14:29;;;;;;;7.20;6.50;;;17.50;99.90;;;;;;5045020;28;21021;-75
2021/01/15 12:16:59;;;;;;;6.70;6.20;;;17.30;99.90;;;;;;5043822;28;20457;-73
2021/01/15 12:19:26;;;;;;;6.83;6.13;;;17.00;99.90;;;;;;5045130;28;20578;-74
2021/01/15 12:21:54;;;;;;;7.43;6.73;;;16.60;99.90;;;;;;5043177;28;20527;-74
2021/01/15 12:24:21;;;;;;;9.67;7.50;;;16.40;99.90;;;;;;5041865;28;21013;-77
2021/01/15 12:26:48;;;;;;;7.33;6.73;;;16.80;99.90;;;;;;5043588;28;20484;-74
2021/01/15 12:29:16;;;;;;;21.70;13.50;;;17.00;99.90;;;;;;5043677;28;20459;-74
2021/01/15 12:31:43;;;;;;;9.00;8.10;;;17.10;99.90;;;;;;5047506;28;20452;-76
2021/01/15 12:34:10;;;;;;;7.90;7.20;;;16.40;99.90;;;;;;5041134;28;20473;-77
2021/01/15 12:36:39;;;;;;;8.97;7.20;;;15.90;99.90;;;;;;5047419;28;21087;-74
2021/01/15 12:39:07;;;;;;;8.77;7.00;;;15.60;98.80;;;;;;5058916;28;20464;-75
2021/01/15 12:41:34;;;;;;;8.80;8.10;;;15.40;98.60;;;;;;5038330;28;20457;-74
2021/01/15 12:44:05;;;;;;;9.00;8.17;;;15.00;97.40;;;;;;5043352;28;20980;-73
2021/01/15 12:46:32;;;;;;;8.47;7.67;;;14.70;95.50;;;;;;5042360;28;20454;-76
2021/01/15 12:48:59;;;;;;;11.20;9.07;;;14.60;94.60;;;;;;5050594;28;20948;-74
2021/01/15 12:51:26;;;;;;;8.93;7.88;;;14.30;92.30;;;;;;5045196;28;20499;-74
2021/01/15 12:53:53;;;;;;;9.10;8.30;;;14.00;89.50;;;;;;5047459;28;20777;-75
2021/01/15 12:56:22;;;;;;;9.27;8.03;;;13.70;83.60;;;;;;5036380;28;20559;-73
2021/01/15 12:58:49;;;;;;;9.60;8.60;;;13.40;79.90;;;;;;5038521;28;20521;-72
2021/01/15 13:01:16;;;;;;;9.27;8.43;;;13.10;76.10;;;;;;5049095;28;20219;-72
2021/01/15 13:03:43;;;;;;;10.10;9.10;;;12.70;70.20;;;;;;5034232;28;20486;-75
2021/01/15 13:06:10;;;;;;;9.93;8.93;;;12.40;66.80;;;;;;5035970;28;20211;-74
2021/01/15 13:08:37;;;;;;;8.57;7.67;;;12.20;64.50;;;;;;5037365;28;20462;-75
2021/01/15 13:11:05;;;;;;;9.53;8.60;;;12.20;65.60;;;;;;5043851;28;20463;-75